createdAt,value
2018-09-24T00:01:30.272Z,8.91
2018-09-24T00:03:59.091Z,8.93
2018-09-24T00:06:27.911Z,8.93
2018-09-24T00:08:56.739Z,8.93
2018-09-24T00:11:25.555Z,8.93
2018-09-24T00:13:54.380Z,8.92
2018-09-24T00:16:23.219Z,8.91
2018-09-24T00:18:52.052Z,8.87
2018-09-24T00:21:20.884Z,8.83
2018-09-24T00:23:49.713Z,8.81
2018-09-24T00:26:18.544Z,8.79
2018-09-24T00:28:47.363Z,8.76
2018-09-24T00:31:16.220Z,8.74
2018-09-24T00:33:45.050Z,8.72
2018-09-24T00:36:13.870Z,8.72
2018-09-24T00:38:42.683Z,8.71
2018-09-24T00:41:11.555Z,8.68
2018-09-24T00:43:40.380Z,8.66
2018-09-24T00:46:09.203Z,8.62
2018-09-24T00:48:38.027Z,8.61
2018-09-24T00:51:06.852Z,8.92
2018-09-24T00:53:35.653Z,8.69
2018-09-24T00:56:04.465Z,8.71
2018-09-24T00:58:33.290Z,8.71
2018-09-24T01:01:02.137Z,9.04
2018-09-24T01:03:30.987Z,8.81
2018-09-24T01:05:59.844Z,8.76
2018-09-24T01:08:28.692Z,8.71
2018-09-24T01:10:57.528Z,8.74
2018-09-24T01:13:26.332Z,8.69
2018-09-24T01:15:55.163Z,8.73
2018-09-24T01:18:24.032Z,8.74
2018-09-24T01:20:52.856Z,8.75
2018-09-24T01:23:21.663Z,8.75
2018-09-24T01:25:50.505Z,8.83
2018-09-24T01:28:19.332Z,8.83
2018-09-24T01:30:48.160Z,8.80
2018-09-24T01:33:16.979Z,9.03
2018-09-24T01:35:45.813Z,8.88
2018-09-24T01:38:14.673Z,8.80
2018-09-24T01:40:43.491Z,8.71
2018-09-24T01:43:12.318Z,8.91
2018-09-24T01:45:41.130Z,8.65
2018-09-24T01:48:09.970Z,8.51
2018-09-24T01:50:38.803Z,8.44
2018-09-24T01:53:08.272Z,8.38
2018-09-24T01:55:37.460Z,8.36
2018-09-24T01:58:06.328Z,8.30
2018-09-24T02:00:35.132Z,8.26
2018-09-24T02:03:04.010Z,8.28
2018-09-24T02:05:32.839Z,8.29
2018-09-24T02:08:01.665Z,8.27
2018-09-24T02:10:30.500Z,8.27
2018-09-24T02:12:59.333Z,8.22
2018-09-24T02:15:30.217Z,8.21
2018-09-24T02:17:59.073Z,8.18
2018-09-24T02:20:27.998Z,8.14
2018-09-24T02:22:56.825Z,8.12
2018-09-24T02:25:25.653Z,8.10
2018-09-24T02:27:54.459Z,8.11
2018-09-24T02:30:23.299Z,8.10
2018-09-24T02:32:52.128Z,8.07
2018-09-24T02:35:20.980Z,8.08
2018-09-24T02:37:49.796Z,8.06
2018-09-24T02:40:25.294Z,8.04
2018-09-24T02:42:54.125Z,8.01
2018-09-24T02:45:22.961Z,8.01
2018-09-24T02:47:51.774Z,8.03
2018-09-24T02:50:20.599Z,8.03
2018-09-24T02:52:49.444Z,8.02
2018-09-24T02:55:19.049Z,8.38
2018-09-24T02:57:47.878Z,8.18
2018-09-24T03:00:20.407Z,8.15
2018-09-24T03:02:49.266Z,8.14
2018-09-24T03:05:18.125Z,8.09
2018-09-24T03:07:46.973Z,8.37
2018-09-24T03:10:15.892Z,8.09
2018-09-24T03:12:50.199Z,8.02
2018-09-24T03:15:19.131Z,7.97
2018-09-24T03:17:48.006Z,7.92
2018-09-24T03:20:16.813Z,7.87
2018-09-24T03:22:45.631Z,7.83
2018-09-24T03:25:17.910Z,7.81
2018-09-24T03:27:46.931Z,7.76
2018-09-24T03:30:15.996Z,7.74
2018-09-24T03:32:44.844Z,7.71
2018-09-24T03:35:13.660Z,7.67
2018-09-24T03:37:42.510Z,7.63
2018-09-24T03:40:11.320Z,7.58
2018-09-24T03:42:40.173Z,7.55
2018-09-24T03:45:08.986Z,7.53
2018-09-24T03:47:37.798Z,7.50
2018-09-24T03:50:06.686Z,7.48
2018-09-24T03:52:35.508Z,7.46
2018-09-24T03:55:04.360Z,7.49
2018-09-24T03:57:33.199Z,7.46
2018-09-24T04:00:02.167Z,7.46
2018-09-24T04:02:31.006Z,7.49
2018-09-24T04:05:17.965Z,7.54
2018-09-24T04:08:04.439Z,7.53
2018-09-24T04:10:51.186Z,7.52
2018-09-24T04:13:37.533Z,7.50
2018-09-24T04:16:24.319Z,7.46
2018-09-24T04:19:10.691Z,7.44
2018-09-24T04:21:57.181Z,7.36
2018-09-24T04:24:43.984Z,7.33
2018-09-24T04:27:30.556Z,7.30
2018-09-24T04:30:17.305Z,7.30
2018-09-24T04:33:03.860Z,7.33
2018-09-24T04:35:50.211Z,7.68
2018-09-24T04:38:36.956Z,7.41
2018-09-24T04:41:23.515Z,7.34
2018-09-24T04:44:09.973Z,7.36
2018-09-24T04:46:56.708Z,7.31
2018-09-24T04:49:43.271Z,7.32
2018-09-24T04:52:30.083Z,7.34
2018-09-24T04:55:16.760Z,7.41
2018-09-24T04:58:03.425Z,7.45
2018-09-24T05:00:50.073Z,7.48
2018-09-24T05:03:36.946Z,7.83
2018-09-24T05:06:23.611Z,7.68
2018-09-24T05:09:10.155Z,7.70
2018-09-24T05:11:57.028Z,7.66
2018-09-24T05:14:43.750Z,7.69
2018-09-24T05:17:30.565Z,7.73
2018-09-24T05:20:17.192Z,7.71
2018-09-24T05:23:03.500Z,7.78
2018-09-24T05:25:50.246Z,7.76
2018-09-24T05:28:36.867Z,7.76
2018-09-24T05:31:23.659Z,8.03
2018-09-24T05:34:10.010Z,7.88
2018-09-24T05:36:56.557Z,7.89
2018-09-24T05:39:43.021Z,7.88
2018-09-24T05:42:29.396Z,7.89
2018-09-24T05:45:15.911Z,7.91
2018-09-24T05:48:02.988Z,7.92
2018-09-24T05:50:49.572Z,7.96
2018-09-24T05:53:36.038Z,8.01
2018-09-24T05:56:22.836Z,8.06
2018-09-24T05:59:09.567Z,8.07
2018-09-24T06:01:56.102Z,8.11
2018-09-24T06:04:43.128Z,8.12
2018-09-24T06:07:29.401Z,8.15
2018-09-24T06:10:16.003Z,8.22
2018-09-24T06:13:02.992Z,8.25
2018-09-24T06:15:49.538Z,8.27
2018-09-24T06:18:36.418Z,8.27
2018-09-24T06:21:23.296Z,8.27
2018-09-24T06:24:09.646Z,8.29
2018-09-24T06:26:56.394Z,8.35
2018-09-24T06:29:42.818Z,8.39
2018-09-24T06:32:29.153Z,8.38
2018-09-24T06:35:15.733Z,8.37
2018-09-24T06:38:02.293Z,8.39
2018-09-24T06:40:49.347Z,8.49
2018-09-24T06:43:35.880Z,8.55
2018-09-24T06:46:22.251Z,8.67
2018-09-24T06:49:09.219Z,8.75
2018-09-24T06:51:55.975Z,8.85
2018-09-24T06:54:42.334Z,8.96
2018-09-24T06:57:29.320Z,9.03
2018-09-24T07:00:15.869Z,9.12
2018-09-24T07:03:02.703Z,9.24
2018-09-24T07:05:49.696Z,9.67
2018-09-24T07:08:36.530Z,9.79
2018-09-24T07:11:22.982Z,9.85
2018-09-24T07:14:09.806Z,9.88
2018-09-24T07:16:56.120Z,9.94
2018-09-24T07:19:42.915Z,9.98
2018-09-24T07:22:29.422Z,10.11
2018-09-24T07:25:15.953Z,10.20
2018-09-24T07:28:02.692Z,10.54
2018-09-24T07:30:49.272Z,10.84
2018-09-24T07:33:35.782Z,10.81
2018-09-24T07:36:22.355Z,10.85
2018-09-24T07:39:08.942Z,10.83
2018-09-24T07:41:55.328Z,10.84
2018-09-24T07:44:42.183Z,10.90
2018-09-24T07:47:28.822Z,11.06
2018-09-24T07:50:15.179Z,11.35
2018-09-24T07:53:01.988Z,11.53
2018-09-24T07:55:48.633Z,11.50
2018-09-24T07:58:35.597Z,11.61
2018-09-24T08:01:22.498Z,12.24
2018-09-24T08:04:09.125Z,14.15
2018-09-24T08:06:55.520Z,15.85
2018-09-24T08:09:42.315Z,15.75
2018-09-24T08:12:28.865Z,14.95
2018-09-24T08:15:15.697Z,14.49
2018-09-24T08:18:02.022Z,14.18
2018-09-24T08:20:48.331Z,14.24
2018-09-24T08:23:35.203Z,14.20
2018-09-24T08:26:21.957Z,14.52
2018-09-24T08:29:08.569Z,14.55
2018-09-24T08:31:55.623Z,14.34
2018-09-24T08:34:42.438Z,14.40
2018-09-24T08:37:29.270Z,14.52
2018-09-24T08:40:15.911Z,14.64
2018-09-24T08:43:02.421Z,14.70
2018-09-24T08:45:48.910Z,14.53
2018-09-24T08:48:35.957Z,14.40
2018-09-24T08:51:22.859Z,14.25
2018-09-24T08:54:09.723Z,14.31
2018-09-24T08:57:15.298Z,14.56
2018-09-24T09:00:02.165Z,14.62
2018-09-24T09:02:49.333Z,14.78
2018-09-24T09:05:36.139Z,14.91
2018-09-24T09:08:23.036Z,15.32
2018-09-24T09:11:09.843Z,15.62
2018-09-24T09:13:56.482Z,15.64
2018-09-24T09:16:42.967Z,15.66
2018-09-24T09:19:29.865Z,16.10
2018-09-24T09:22:16.687Z,16.76
2018-09-24T09:25:03.237Z,16.16
2018-09-24T09:27:50.003Z,17.78
2018-09-24T09:30:36.765Z,19.37
2018-09-24T09:33:23.797Z,19.74
2018-09-24T09:36:10.607Z,19.73
2018-09-24T09:38:56.875Z,18.30
2018-09-24T09:41:43.365Z,17.89
2018-09-24T09:44:30.205Z,18.27
2018-09-24T09:47:16.529Z,19.88
2018-09-24T09:50:03.420Z,21.61
2018-09-24T09:52:50.102Z,23.20
2018-09-24T09:55:36.767Z,25.11
2018-09-24T09:58:23.324Z,25.91
2018-09-24T10:01:11.365Z,25.67
2018-09-24T10:03:59.037Z,26.38
2018-09-24T10:06:47.047Z,27.09
2018-09-24T10:09:34.534Z,27.19
2018-09-24T10:12:21.928Z,27.88
2018-09-24T10:15:11.094Z,28.26
2018-09-24T10:17:57.884Z,28.17
2018-09-24T10:20:45.504Z,28.04
2018-09-24T10:23:33.925Z,27.39
2018-09-24T10:26:21.418Z,29.10
2018-09-24T10:29:07.984Z,27.85
2018-09-24T10:31:55.739Z,27.65
2018-09-24T10:34:43.586Z,27.58
2018-09-24T10:37:30.196Z,27.38
2018-09-24T10:40:16.521Z,26.22
2018-09-24T10:43:03.529Z,26.46
2018-09-24T10:45:50.082Z,24.49
2018-09-24T10:48:36.837Z,23.12
2018-09-24T10:51:23.439Z,22.18
2018-09-24T10:54:10.092Z,21.42
2018-09-24T10:56:56.585Z,20.37
2018-09-24T10:59:43.252Z,21.47
2018-09-24T11:02:29.821Z,22.76
2018-09-24T11:05:16.451Z,23.39
2018-09-24T11:08:02.856Z,23.50
2018-09-24T11:10:49.564Z,23.42
2018-09-24T11:13:35.887Z,24.49
2018-09-24T11:16:23.085Z,25.13
2018-09-24T11:19:09.592Z,25.45
2018-09-24T11:21:56.376Z,25.69
2018-09-24T11:24:43.192Z,24.21
2018-09-24T11:27:29.999Z,22.62
2018-09-24T11:30:16.648Z,22.08
2018-09-24T11:33:03.097Z,20.57
2018-09-24T11:35:49.739Z,19.86
2018-09-24T11:38:36.288Z,19.88
2018-09-24T11:41:23.073Z,20.67
2018-09-24T11:44:09.654Z,20.35
2018-09-24T11:46:56.225Z,20.37
2018-09-24T11:49:42.907Z,20.07
2018-09-24T11:52:29.526Z,19.76
2018-09-24T11:55:16.152Z,19.39
2018-09-24T11:58:02.433Z,19.09
2018-09-24T12:00:49.078Z,19.33
2018-09-24T12:03:35.629Z,19.30
2018-09-24T12:06:22.477Z,19.18
2018-09-24T12:09:09.007Z,19.14
2018-09-24T12:11:55.612Z,18.97
2018-09-24T12:14:42.233Z,18.90
2018-09-24T12:17:29.027Z,18.88
2018-09-24T12:20:15.890Z,19.08
2018-09-24T12:23:02.568Z,19.46
2018-09-24T12:25:49.609Z,19.57
2018-09-24T12:28:35.879Z,19.27
2018-09-24T12:31:22.601Z,18.91
2018-09-24T12:34:09.489Z,18.37
2018-09-24T12:36:55.914Z,18.32
2018-09-24T12:39:42.280Z,18.50
2018-09-24T12:42:28.828Z,18.56
2018-09-24T12:45:15.576Z,18.71
2018-09-24T12:48:02.202Z,18.81
2018-09-24T12:50:48.974Z,18.87
2018-09-24T12:53:35.750Z,18.93
2018-09-24T12:56:22.198Z,18.78
2018-09-24T12:59:08.808Z,18.48
2018-09-24T13:01:55.492Z,17.88
2018-09-24T13:04:42.268Z,17.45
2018-09-24T13:07:28.771Z,17.06
2018-09-24T13:10:15.712Z,16.95
2018-09-24T13:13:02.407Z,17.13
2018-09-24T13:15:48.999Z,17.47
2018-09-24T13:18:35.781Z,18.03
2018-09-24T13:21:22.205Z,18.48
2018-09-24T13:24:08.871Z,18.70
2018-09-24T13:26:55.467Z,18.94
2018-09-24T13:29:42.036Z,18.75
2018-09-24T13:32:28.630Z,18.76
2018-09-24T13:35:15.334Z,18.85
2018-09-24T13:38:01.982Z,18.96
2018-09-24T13:40:48.738Z,19.08
2018-09-24T13:43:35.762Z,19.25
2018-09-24T13:46:22.497Z,19.28
2018-09-24T13:49:09.274Z,19.21
2018-09-24T13:51:56.077Z,19.11
2018-09-24T13:54:42.634Z,18.80
2018-09-24T13:57:29.404Z,18.47
2018-09-24T14:00:16.169Z,18.25
2018-09-24T14:03:03.090Z,17.94
2018-09-24T14:05:49.591Z,17.77
2018-09-24T14:08:35.914Z,17.63
2018-09-24T14:11:22.456Z,17.59
2018-09-24T14:14:09.004Z,17.48
2018-09-24T14:16:55.549Z,17.27
2018-09-24T14:19:41.959Z,16.86
2018-09-24T14:22:28.411Z,16.64
2018-09-24T14:25:14.985Z,16.41
2018-09-24T14:28:01.945Z,16.16
2018-09-24T14:30:48.296Z,15.88
2018-09-24T14:33:34.871Z,15.50
2018-09-24T14:36:21.404Z,15.33
2018-09-24T14:39:07.749Z,15.04
2018-09-24T14:41:54.359Z,14.94
2018-09-24T14:44:41.340Z,14.95
2018-09-24T14:47:27.912Z,15.11
2018-09-24T14:50:14.811Z,15.29
2018-09-24T14:53:01.787Z,15.43
2018-09-24T14:55:48.304Z,15.66
2018-09-24T14:58:35.159Z,15.79
2018-09-24T15:01:21.971Z,16.00
2018-09-24T15:04:08.613Z,16.25
2018-09-24T15:06:55.164Z,16.63
2018-09-24T15:09:42.005Z,16.77
2018-09-24T15:12:28.652Z,16.83
2018-09-24T15:15:15.177Z,16.71
2018-09-24T15:18:01.538Z,16.64
2018-09-24T15:20:48.344Z,16.55
2018-09-24T15:23:34.677Z,16.47
2018-09-24T15:26:21.110Z,16.44
2018-09-24T15:29:07.685Z,16.40
2018-09-24T15:31:54.512Z,16.44
2018-09-24T15:34:41.288Z,16.28
2018-09-24T15:37:27.679Z,16.22
2018-09-24T15:40:14.046Z,16.24
2018-09-24T15:43:00.897Z,16.22
2018-09-24T15:45:47.281Z,16.26
2018-09-24T15:48:33.627Z,15.96
2018-09-24T15:51:20.282Z,15.75
2018-09-24T15:54:07.078Z,15.55
2018-09-24T15:56:53.716Z,15.41
2018-09-24T15:59:40.501Z,15.30
2018-09-24T16:02:27.219Z,15.15
2018-09-24T16:05:13.792Z,14.94
2018-09-24T16:08:00.398Z,14.86
2018-09-24T16:10:46.865Z,14.84
2018-09-24T16:13:33.714Z,14.82
2018-09-24T16:16:20.535Z,14.65
2018-09-24T16:19:07.171Z,14.85
2018-09-24T16:21:53.872Z,14.84
2018-09-24T16:24:40.559Z,14.60
2018-09-24T16:27:27.039Z,14.42
2018-09-24T16:30:13.760Z,14.33
2018-09-24T16:33:00.582Z,14.27
2018-09-24T16:35:47.247Z,14.24
2018-09-24T16:38:33.769Z,14.13
2018-09-24T16:41:20.081Z,14.07
2018-09-24T16:44:06.705Z,14.00
2018-09-24T16:46:53.060Z,13.90
2018-09-24T16:49:39.574Z,13.75
2018-09-24T16:52:26.347Z,13.64
2018-09-24T16:55:12.959Z,13.62
2018-09-24T16:57:59.594Z,13.54
2018-09-24T17:00:45.958Z,13.45
2018-09-24T17:03:32.752Z,13.43
2018-09-24T17:06:19.165Z,13.44
2018-09-24T17:09:06.218Z,13.47
2018-09-24T17:11:52.709Z,13.54
2018-09-24T17:14:39.311Z,13.40
2018-09-24T17:17:26.231Z,13.32
2018-09-24T17:20:12.728Z,13.29
2018-09-24T17:22:59.176Z,13.19
2018-09-24T17:25:45.742Z,13.06
2018-09-24T17:28:32.647Z,12.88
2018-09-24T17:31:19.173Z,12.90
2018-09-24T17:34:05.695Z,12.92
2018-09-24T17:36:52.398Z,12.78
2018-09-24T17:39:39.195Z,12.55
2018-09-24T17:42:25.648Z,12.35
2018-09-24T17:45:12.242Z,12.22
2018-09-24T17:47:58.571Z,12.01
2018-09-24T17:50:45.110Z,11.92
2018-09-24T17:53:31.793Z,11.81
2018-09-24T17:56:18.292Z,11.79
2018-09-24T17:59:04.632Z,11.77
2018-09-24T18:01:51.345Z,11.81
2018-09-24T18:04:38.096Z,11.78
2018-09-24T18:07:24.675Z,11.78
2018-09-24T18:10:11.205Z,11.75
2018-09-24T18:12:57.979Z,11.64
2018-09-24T18:15:44.549Z,11.67
2018-09-24T18:18:31.216Z,11.69
2018-09-24T18:21:17.687Z,11.83
2018-09-24T18:24:04.327Z,11.83
2018-09-24T18:26:50.732Z,11.99
2018-09-24T18:29:37.275Z,11.98
2018-09-24T18:32:23.876Z,12.21
2018-09-24T18:35:10.772Z,12.34
2018-09-24T18:37:57.686Z,12.16
2018-09-24T18:40:44.406Z,12.12
2018-09-24T18:43:31.157Z,11.99
2018-09-24T18:46:17.481Z,11.89
2018-09-24T18:49:03.875Z,11.75
2018-09-24T18:51:50.267Z,12.03
2018-09-24T18:54:37.050Z,12.09
2018-09-24T18:57:23.877Z,11.74
2018-09-24T19:00:10.402Z,11.56
2018-09-24T19:02:57.067Z,11.43
2018-09-24T19:05:43.690Z,11.36
2018-09-24T19:08:30.517Z,11.21
2018-09-24T19:11:27.645Z,11.14
2018-09-24T19:14:03.780Z,11.02
2018-09-24T19:16:50.134Z,10.98
2018-09-24T19:19:36.415Z,10.86
2018-09-24T19:22:22.756Z,10.80
2018-09-24T19:25:09.303Z,10.87
2018-09-24T19:27:55.614Z,10.76
2018-09-24T19:30:42.384Z,10.71
2018-09-24T19:33:29.274Z,10.62
2018-09-24T19:36:16.110Z,10.56
2018-09-24T19:39:02.898Z,10.89
2018-09-24T19:41:49.852Z,10.59
2018-09-24T19:44:36.645Z,10.50
2018-09-24T19:47:23.289Z,10.46
2018-09-24T19:50:10.184Z,10.39
2018-09-24T19:52:56.770Z,10.30
2018-09-24T19:55:43.269Z,10.22
2018-09-24T19:58:29.773Z,10.20
2018-09-24T20:01:16.697Z,10.17
2018-09-24T20:04:03.083Z,10.20
2018-09-24T20:06:49.700Z,10.21
2018-09-24T20:09:36.169Z,10.23
2018-09-24T20:12:22.988Z,10.18
2018-09-24T20:15:09.717Z,10.14
2018-09-24T20:17:56.701Z,10.17
2018-09-24T20:20:43.443Z,10.22
2018-09-24T20:23:29.816Z,10.68
2018-09-24T20:26:16.342Z,10.52
2018-09-24T20:29:02.963Z,10.49
2018-09-24T20:31:49.429Z,10.51
2018-09-24T20:34:35.809Z,10.50
2018-09-24T20:37:22.524Z,10.49
2018-09-24T20:40:09.010Z,10.51
2018-09-24T20:42:56.010Z,10.53
2018-09-24T20:45:42.803Z,10.64
2018-09-24T20:48:29.276Z,10.68
2018-09-24T20:51:16.342Z,10.65
2018-09-24T20:54:02.949Z,10.96
2018-09-24T20:56:49.362Z,10.82
2018-09-24T20:59:35.724Z,10.79
2018-09-24T21:02:22.209Z,10.68
2018-09-24T21:05:08.525Z,10.63
2018-09-24T21:07:54.876Z,11.00
2018-09-24T21:10:41.525Z,10.80
2018-09-24T21:13:28.288Z,10.77
2018-09-24T21:16:15.195Z,10.80
2018-09-24T21:19:02.086Z,10.78
2018-09-24T21:21:48.420Z,10.76
2018-09-24T21:24:34.922Z,10.81
2018-09-24T21:27:21.735Z,10.76
2018-09-24T21:30:08.082Z,10.76
2018-09-24T21:32:54.863Z,10.78
2018-09-24T21:35:41.355Z,10.68
2018-09-24T21:38:28.174Z,10.68
2018-09-24T21:41:14.486Z,10.69
2018-09-24T21:44:01.146Z,10.75
2018-09-24T21:46:47.572Z,10.81
2018-09-24T21:49:34.309Z,10.79
2018-09-24T21:52:21.339Z,10.73
2018-09-24T21:55:07.609Z,11.12
2018-09-24T21:57:54.324Z,10.86
2018-09-24T22:00:41.439Z,10.83
2018-09-24T22:03:28.252Z,11.21
2018-09-24T22:06:14.697Z,10.93
2018-09-24T22:09:01.257Z,10.88
2018-09-24T22:11:47.683Z,10.79
2018-09-24T22:14:34.469Z,10.76
2018-09-24T22:17:20.764Z,10.73
2018-09-24T22:20:07.149Z,10.68
2018-09-24T22:22:53.906Z,11.12
2018-09-24T22:25:40.691Z,10.75
2018-09-24T22:28:27.060Z,10.65
2018-09-24T22:31:13.371Z,11.00
2018-09-24T22:33:59.948Z,10.65
2018-09-24T22:36:46.290Z,10.60
2018-09-24T22:39:33.132Z,10.49
2018-09-24T22:42:19.712Z,10.38
2018-09-24T22:45:06.519Z,10.34
2018-09-24T22:47:53.233Z,10.24
2018-09-24T22:50:40.069Z,10.57
2018-09-24T22:53:26.643Z,10.26
2018-09-24T22:56:13.450Z,10.16
2018-09-24T22:58:59.883Z,10.08
2018-09-24T23:01:46.629Z,9.94
2018-09-24T23:04:32.997Z,9.87
2018-09-24T23:07:19.867Z,9.81
2018-09-24T23:10:06.266Z,9.72
2018-09-24T23:12:53.031Z,9.68
2018-09-24T23:15:39.711Z,9.58
2018-09-24T23:18:26.059Z,9.49
2018-09-24T23:21:12.704Z,9.90
2018-09-24T23:23:59.224Z,9.62
2018-09-24T23:26:45.598Z,9.60
2018-09-24T23:29:32.004Z,9.54
2018-09-24T23:32:18.704Z,9.44
2018-09-24T23:35:05.180Z,9.37
2018-09-24T23:37:51.791Z,9.40
2018-09-24T23:40:38.600Z,9.42
2018-09-24T23:43:25.234Z,9.35
2018-09-24T23:46:12.050Z,9.23
2018-09-24T23:48:58.407Z,9.18
2018-09-24T23:51:45.413Z,9.09
2018-09-24T23:54:32.205Z,9.07
2018-09-24T23:57:18.979Z,9.05
